Greeley, IA

1:14 PM CDT on April 01, 2015 (GMT -0500)
Prairie Du Chien Municipal | | Change Station
CLOSE
Current Station
Airport
Location: Prairie Du Chien,
Elevation: 659 ft
Nearby Weather Stations
Active Advisory: Fire Weather Warning

Elev 659 ft 43.02 °N, 91.12 °W | Updated 19 minutes ago

Clear
Clear
74 °F
Feels Like 74 °F
N
8
Wind Variable Wind from South

Today
High -- | Low -- °F
--% Chance of Precip.
Yesterday
High -- | Low -- °F
Precip. -- in
6:47 AM 7:31 PM
Waxing Gibbous, 93% visible
Pressure 29.83 in
Visibility 10.0 miles
Clouds Clear
Dew Point 32 °F
Humidity 21%
Rainfall 0.00 in
Snow Depth Not available.
UV 8 out of 12
Pollen 8.00 out of 12
Air Quality Not available.
Flu Activity Not available.
METAR KPDC 011755Z AUTO 17007KT 10SM CLR 24/00 A2983 RMK AO2 T02351001 10235 20011

More Conditions Fewer Conditions

Pressure 29.83 in
Visibility 10.0 miles
Clouds Clear
Dew Point 32 °F
Humidity 21%
Rainfall 0.00 in
Snow Depth Not available.
UV 8 out of 12
Pollen 8.00 out of 12
Air Quality Not available.
Flu Activity Not available.
METAR KPDC 011755Z AUTO 17007KT 10SM CLR 24/00 A2983 RMK AO2 T02351001 10235 20011

More Conditions Fewer Conditions

10-Day Weather Forecast

Almanac

Astronomy

Apr. 01, 2015 Rise Set
Actual Time
Civil Twilight
Nautical Twilight
Astronomical Twilight
Moon
Length of Visible Light
Length of Day
Tomorrow will be .
, % of the Moon is Illuminated

Today's Extremes

State Highs State Lows

Community

WunderPhotos

Upload Photos

1,810,030 photos uploaded!

WunderBlogs® & News

Nearby

Air Quality

  Air Quality AQ Index Pollutant
Not available.

Snow Depth

Station Depth Elevation

Earthquake Activity

City Distance Mag. Time & Date
Minimum magnitude displayed is 2.5.

Coastal Water Temperatures

Place Temperature

Stations

Nearby Weather Stations

Station Location Temp. Windchill Dew Point Humidity Wind Precip. Elev Updated Type
                   
Fire Weather Warning
Statement as of 10:44 AM CDT on April 01, 2015

... Red flag warning remains in effect until 7 PM CDT for portions
of eastern Iowa due to extreme fire weather conditions...

* affected area... portions of eastern Iowa roughly along and
west of a line from Manchester to Mount Pleasant.

* Timing... the most dangerous conditions are expected this
afternoon.

* Winds... south 25 mph with gusts up to 40 mph.

* Relative humidity... as low as 25 percent.

* Temperatures... 75 to 80.

* Grassland fire danger index... extreme.

* Impacts... if a grass fire or wildfire were to develop it would
spread rapidly and would be very difficult to control. Outdoor
burning is strongly discouraged and should be avoided.

Precautionary/preparedness actions...

A red flag warning means that critical fire weather conditions
are either occurring now... or will shortly. A combination of
strong winds... low relative humidity... and warm temperatures can
contribute to extreme fire behavior. Outdoor burning is not
recommended.